Time;durP1;ratioP1;P1;durP2;ratioP2;P2;SDS_P1;SDS_P2;PMS_P1;PMS_P2;Temp;Humidity;BMP_temperature;BMP_pressure;BME280_temperature;BME280_humidity;BME280_pressure;Samples;Min_cycle;Max_cycle;Signal;HPM_P1;HPM_P2
2022/12/20 00:00:17;;;;;;;1.25;1.15;;;21.50;44.20;;;;;;6090813;23;20041;-61
2022/12/20 00:02:43;;;;;;;1.20;0.93;;;21.40;44.20;;;;;;6066948;23;20069;-61
2022/12/20 00:05:09;;;;;;;1.15;1.05;;;21.40;44.10;;;;;;6117805;23;20010;-61
2022/12/20 00:07:35;;;;;;;1.25;1.13;;;21.40;44.20;;;;;;6116643;23;20452;-61
2022/12/20 00:10:00;;;;;;;1.55;1.23;;;21.40;44.10;;;;;;6115538;23;20347;-62
2022/12/20 00:12:26;;;;;;;1.10;1.00;;;21.40;44.10;;;;;;6091304;23;20024;-61
2022/12/20 00:14:52;;;;;;;1.13;1.02;;;21.40;44.20;;;;;;6091621;23;20358;-62
2022/12/20 00:17:18;;;;;;;1.20;1.10;;;21.40;44.20;;;;;;6090828;23;20089;-63
2022/12/20 00:19:44;;;;;;;1.45;1.15;;;21.30;44.10;;;;;;6067406;23;20021;-62
2022/12/20 00:22:10;;;;;;;1.25;1.08;;;21.30;44.10;;;;;;6116563;23;20014;-62
2022/12/20 00:24:36;;;;;;;1.75;1.27;;;21.30;44.10;;;;;;6089971;23;20517;-62
2022/12/20 00:27:02;;;;;;;1.30;1.00;;;21.30;44.10;;;;;;6090616;23;20082;-61
2022/12/20 00:29:27;;;;;;;2.28;1.45;;;21.30;44.10;;;;;;6116852;23;20016;-61
2022/12/20 00:31:53;;;;;;;0.88;0.88;;;21.20;44.00;;;;;;6116120;23;20287;-61
2022/12/20 00:34:19;;;;;;;1.73;1.15;;;21.20;44.00;;;;;;6114694;23;20475;-61
2022/12/20 00:36:44;;;;;;;1.98;1.38;;;21.20;44.00;;;;;;6116785;23;20018;-62
2022/12/20 00:39:10;;;;;;;2.38;1.27;;;21.20;44.00;;;;;;6090396;23;20018;-62
2022/12/20 00:41:36;;;;;;;1.10;1.00;;;21.10;44.00;;;;;;6089926;23;20033;-62
2022/12/20 00:44:03;;;;;;;1.30;1.10;;;21.10;44.00;;;;;;6089895;23;20020;-61
2022/12/20 00:46:30;;;;;;;1.00;0.90;;;21.10;44.00;;;;;;6116531;23;20010;-61
2022/12/20 00:48:56;;;;;;;1.20;1.10;;;21.10;43.90;;;;;;6066340;23;20464;-61
2022/12/20 00:51:25;;;;;;;1.33;1.05;;;21.10;43.90;;;;;;6116795;23;20014;-61
2022/12/20 00:53:51;;;;;;;1.38;1.20;;;21.10;43.90;;;;;;6089964;23;20089;-61
2022/12/20 00:56:17;;;;;;;1.10;1.00;;;21.10;43.90;;;;;;6090816;23;20061;-61
2022/12/20 00:58:44;;;;;;;1.27;1.10;;;21.10;44.00;;;;;;6115155;23;20013;-61
2022/12/20 01:01:22;;;;;;;1.52;1.38;;;21.10;43.90;;;;;;6115676;23;20064;-61
2022/12/20 01:03:48;;;;;;;1.20;1.10;;;21.10;43.90;;;;;;6090608;23;20014;-61
2022/12/20 01:06:15;;;;;;;1.77;1.25;;;21.00;43.80;;;;;;6116981;23;20017;-61
2022/12/20 01:08:41;;;;;;;1.10;0.93;;;21.00;43.90;;;;;;6115629;23;20021;-61
2022/12/20 01:11:13;;;;;;;1.15;1.00;;;21.00;43.90;;;;;;6115423;23;20069;-60
2022/12/20 01:13:41;;;;;;;1.15;0.90;;;21.00;43.80;;;;;;6091824;23;20394;-60
2022/12/20 01:16:22;;;;;;;1.60;1.10;;;21.00;43.90;;;;;;6089367;23;20018;-60
2022/12/20 01:18:48;;;;;;;1.40;1.15;;;21.00;43.80;;;;;;6090514;23;20097;-60
2022/12/20 01:21:16;;;;;;;1.20;1.10;;;21.00;43.80;;;;;;6065577;23;20390;-61
2022/12/20 01:23:42;;;;;;;1.20;1.10;;;20.90;43.80;;;;;;6116512;23;20463;-61
2022/12/20 01:26:12;;;;;;;1.08;0.90;;;20.90;43.70;;;;;;6116056;23;20014;-61
2022/12/20 01:28:39;;;;;;;0.88;0.88;;;20.90;43.70;;;;;;6116052;23;20017;-61
2022/12/20 01:31:09;;;;;;;1.13;1.02;;;20.90;44.10;;;;;;6063372;23;20061;-62
2022/12/20 01:33:36;;;;;;;0.98;0.90;;;20.90;43.70;;;;;;6088836;23;20033;-61
2022/12/20 01:36:05;;;;;;;1.00;1.00;;;20.90;43.70;;;;;;6113297;23;20022;-61
2022/12/20 01:38:31;;;;;;;1.05;0.90;;;20.90;43.70;;;;;;6113693;23;20024;-62
2022/12/20 01:40:58;;;;;;;1.33;0.90;;;20.80;43.60;;;;;;6088742;23;20026;-62
2022/12/20 01:43:42;;;;;;;1.10;1.00;;;20.80;43.60;;;;;;6089529;23;20021;-61
2022/12/20 01:46:08;;;;;;;1.45;0.90;;;20.80;43.60;;;;;;6065134;23;20010;-61
2022/12/20 01:48:34;;;;;;;0.98;0.82;;;20.80;43.70;;;;;;6114642;23;20014;-61
2022/12/20 01:51:00;;;;;;;1.55;0.90;;;20.80;43.60;;;;;;6115622;23;20145;-61
2022/12/20 01:53:25;;;;;;;1.33;0.90;;;20.80;43.60;;;;;;6065809;23;20014;-61
2022/12/20 01:55:52;;;;;;;1.35;0.73;;;20.80;43.60;;;;;;6114882;23;20018;-61
2022/12/20 01:58:20;;;;;;;1.00;1.00;;;20.80;43.60;;;;;;6115793;23;20041;-61
2022/12/20 02:00:46;;;;;;;0.88;0.88;;;20.80;43.60;;;;;;6115185;23;20450;-61
2022/12/20 02:03:14;;;;;;;1.35;1.00;;;20.70;43.50;;;;;;6060242;23;20017;-61
2022/12/20 02:05:44;;;;;;;1.05;0.95;;;20.80;43.60;;;;;;6088571;23;20068;-61
2022/12/20 02:08:12;;;;;;;1.30;1.03;;;20.80;43.60;;;;;;6115351;23;20021;-61
2022/12/20 02:10:57;;;;;;;0.80;0.80;;;20.80;43.60;;;;;;6088583;23;20017;-61
2022/12/20 02:13:53;;;;;;;0.90;0.90;;;20.70;43.50;;;;;;6088758;23;20022;-62
2022/12/20 02:16:26;;;;;;;0.85;0.85;;;20.70;43.60;;;;;;6100643;23;20105;-61
2022/12/20 02:18:57;;;;;;;0.70;0.70;;;20.70;43.70;;;;;;6108744;23;20021;-61
2022/12/20 02:21:56;;;;;;;0.73;0.73;;;20.70;43.70;;;;;;6067129;23;20096;-61
2022/12/20 02:24:34;;;;;;;1.10;1.00;;;20.70;43.70;;;;;;6117702;23;20059;-61
2022/12/20 02:27:18;;;;;;;0.70;0.70;;;20.60;43.70;;;;;;6090801;23;20053;-62
2022/12/20 02:30:04;;;;;;;0.82;0.82;;;20.60;43.70;;;;;;6091311;23;20124;-62
2022/12/20 02:32:39;;;;;;;1.05;0.85;;;20.60;43.70;;;;;;6117114;23;20148;-60
2022/12/20 02:35:07;;;;;;;0.80;0.80;;;20.50;43.60;;;;;;6116800;23;20086;-61
2022/12/20 02:37:33;;;;;;;0.75;0.73;;;20.60;43.70;;;;;;6116374;23;20446;-61
2022/12/20 02:40:00;;;;;;;0.90;0.90;;;20.60;43.70;;;;;;6090478;23;20025;-61
2022/12/20 02:42:27;;;;;;;1.88;0.80;;;20.60;43.70;;;;;;6090241;23;20052;-61
2022/12/20 02:45:14;;;;;;;0.50;0.50;;;20.50;43.60;;;;;;6092177;23;20018;-61
2022/12/20 02:47:48;;;;;;;0.85;0.85;;;20.50;43.60;;;;;;6115666;23;20021;-62
2022/12/20 02:50:26;;;;;;;0.70;0.70;;;20.50;43.60;;;;;;6118031;23;20021;-61
2022/12/20 02:52:52;;;;;;;0.73;0.70;;;20.50;43.60;;;;;;6117448;23;20022;-61
2022/12/20 02:55:22;;;;;;;0.93;0.93;;;20.50;43.60;;;;;;6090843;23;20026;-61
2022/12/20 02:57:59;;;;;;;1.20;0.90;;;20.50;43.70;;;;;;6090698;23;20024;-62
2022/12/20 03:00:24;;;;;;;0.85;0.85;;;20.40;43.70;;;;;;6116245;23;20113;-59
2022/12/20 03:05:44;;;;;;;0.80;0.80;;;20.40;43.70;;;;;;6116817;23;20475;-61
2022/12/20 03:08:10;;;;;;;1.00;0.90;;;20.40;43.70;;;;;;6116559;23;20010;-61
2022/12/20 03:10:36;;;;;;;0.70;0.70;;;20.40;43.80;;;;;;6091090;23;20451;-61
2022/12/20 03:13:01;;;;;;;0.90;0.90;;;20.40;43.80;;;;;;6116798;23;20018;-61
2022/12/20 03:15:27;;;;;;;1.17;1.00;;;20.40;43.80;;;;;;6117382;23;20018;-61
2022/12/20 03:17:53;;;;;;;0.70;0.70;;;20.30;43.70;;;;;;6066397;23;20009;-61
2022/12/20 03:20:18;;;;;;;1.02;0.90;;;20.30;43.80;;;;;;6116573;23;20446;-61
2022/12/20 03:22:44;;;;;;;0.73;0.73;;;20.30;43.80;;;;;;6117251;23;20287;-61
2022/12/20 03:25:10;;;;;;;0.80;0.80;;;20.30;43.80;;;;;;6117452;23;20064;-61
2022/12/20 03:27:36;;;;;;;0.68;0.65;;;20.30;43.80;;;;;;6116086;23;20022;-61
2022/12/20 03:30:03;;;;;;;1.55;0.90;;;20.30;43.80;;;;;;6090389;23;20018;-61
2022/12/20 03:32:29;;;;;;;0.60;0.60;;;20.30;43.80;;;;;;6090313;23;20097;-61
2022/12/20 03:34:55;;;;;;;0.82;0.77;;;20.30;43.90;;;;;;6090377;23;20130;-61
2022/12/20 03:37:21;;;;;;;0.85;0.70;;;20.30;43.80;;;;;;6114876;23;20013;-59
2022/12/20 03:39:46;;;;;;;1.05;0.73;;;20.30;43.80;;;;;;6115792;23;20522;-60
2022/12/20 03:42:12;;;;;;;0.80;0.75;;;20.30;43.90;;;;;;6115247;23;20021;-61
2022/12/20 03:44:38;;;;;;;0.70;0.70;;;20.20;43.80;;;;;;6089841;23;20037;-61
2022/12/20 03:47:03;;;;;;;0.70;0.70;;;20.30;44.00;;;;;;6114844;23;20037;-60
2022/12/20 03:49:29;;;;;;;0.98;0.90;;;20.30;43.90;;;;;;6115473;23;20089;-61
2022/12/20 03:51:55;;;;;;;0.63;0.63;;;20.20;43.90;;;;;;6089255;23;20508;-61
2022/12/20 03:54:21;;;;;;;0.77;0.77;;;20.20;43.90;;;;;;6114426;23;20092;-61
2022/12/20 03:56:46;;;;;;;1.40;0.77;;;20.20;43.90;;;;;;6114607;23;20117;-61
2022/12/20 03:59:12;;;;;;;0.80;0.80;;;20.20;43.90;;;;;;6115516;23;20283;-61
2022/12/20 04:01:38;;;;;;;0.88;0.60;;;20.20;43.90;;;;;;6088725;23;20489;-61
2022/12/20 04:04:04;;;;;;;0.98;0.90;;;20.10;43.90;;;;;;6114965;23;20097;-60
2022/12/20 04:06:30;;;;;;;0.88;0.70;;;20.20;43.90;;;;;;6089166;23;20025;-61
2022/12/20 04:08:56;;;;;;;0.90;0.70;;;20.10;43.90;;;;;;6115049;23;20018;-61
2022/12/20 04:11:22;;;;;;;0.80;0.70;;;20.20;44.00;;;;;;6114153;23;20017;-61
2022/12/20 04:13:52;;;;;;;0.85;0.80;;;20.20;43.90;;;;;;6115499;23;20435;-61
2022/12/20 04:16:24;;;;;;;1.40;0.85;;;20.10;44.00;;;;;;6088550;23;20454;-61
2022/12/20 04:18:50;;;;;;;0.70;0.70;;;20.10;44.00;;;;;;6115407;23;20021;-60
2022/12/20 04:21:24;;;;;;;0.80;0.60;;;20.10;44.00;;;;;;6114614;23;20026;-61
2022/12/20 04:23:50;;;;;;;0.80;0.80;;;20.10;44.00;;;;;;6115832;23;20047;-61
2022/12/20 04:26:15;;;;;;;0.70;0.70;;;20.10;44.00;;;;;;6115690;23;20024;-61
2022/12/20 04:28:41;;;;;;;0.80;0.70;;;20.10;44.00;;;;;;6089423;23;20417;-61
2022/12/20 04:31:07;;;;;;;0.70;0.70;;;20.10;44.00;;;;;;6063944;23;20511;-61
2022/12/20 04:33:33;;;;;;;0.80;0.80;;;20.10;44.10;;;;;;6065541;23;1158088;-60
2022/12/20 04:35:58;;;;;;;0.70;0.65;;;20.10;44.10;;;;;;6116292;23;20028;-60
2022/12/20 04:38:25;;;;;;;0.75;0.75;;;20.10;44.10;;;;;;6115374;23;20018;-60
2022/12/20 04:40:52;;;;;;;0.68;0.68;;;20.10;44.10;;;;;;6089712;23;20026;-60
2022/12/20 04:43:18;;;;;;;0.63;0.63;;;20.10;44.10;;;;;;6116476;23;20073;-60
2022/12/20 04:45:46;;;;;;;1.05;0.85;;;20.10;44.10;;;;;;6065472;23;20474;-60
2022/12/20 04:48:12;;;;;;;0.70;0.60;;;20.10;44.20;;;;;;6116292;23;20044;-60
2022/12/20 04:50:38;;;;;;;0.70;0.70;;;20.10;44.20;;;;;;6116209;23;20013;-61
2022/12/20 04:55:48;;;;;;;0.93;0.88;;;20.10;44.20;;;;;;6116725;23;20026;-60
2022/12/20 04:58:13;;;;;;;0.60;0.60;;;20.00;44.10;;;;;;6116404;23;20111;-60
2022/12/20 05:00:39;;;;;;;0.70;0.60;;;20.00;44.10;;;;;;6116342;23;20391;-60
2022/12/20 05:03:05;;;;;;;1.60;0.70;;;20.00;44.20;;;;;;6090350;23;20041;-60
2022/12/20 05:05:30;;;;;;;0.70;0.70;;;20.00;44.20;;;;;;6090929;23;20018;-60
2022/12/20 05:07:56;;;;;;;0.70;0.70;;;20.00;44.20;;;;;;6089251;23;20052;-60
2022/12/20 05:10:22;;;;;;;0.73;0.63;;;20.00;44.20;;;;;;6116427;23;20476;-61
2022/12/20 05:12:48;;;;;;;0.95;0.80;;;20.00;44.40;;;;;;6066165;23;20021;-61
2022/12/20 05:15:14;;;;;;;0.77;0.60;;;20.00;44.40;;;;;;6117097;23;20134;-61
2022/12/20 05:17:39;;;;;;;0.63;0.63;;;20.00;44.40;;;;;;6115772;23;20342;-62
2022/12/20 05:20:06;;;;;;;0.73;0.70;;;19.90;44.30;;;;;;6115971;23;20057;-61
2022/12/20 05:28:01;;;;;;;1.20;0.70;;;19.90;44.20;;;;;;6089897;23;20029;-60
2022/12/20 05:30:27;;;;;;;4.32;0.77;;;19.90;44.30;;;;;;6089322;23;20021;-60
2022/12/20 05:32:53;;;;;;;1.17;0.80;;;19.90;44.30;;;;;;6115528;23;20029;-61
2022/12/20 05:35:19;;;;;;;0.80;0.80;;;19.90;44.30;;;;;;6115128;23;20316;-61
2022/12/20 05:37:44;;;;;;;0.70;0.70;;;19.90;44.30;;;;;;6066322;23;20022;-60
2022/12/20 05:40:10;;;;;;;1.67;0.70;;;19.90;44.20;;;;;;6114054;23;20500;-61
2022/12/20 05:42:36;;;;;;;2.47;0.60;;;19.90;44.40;;;;;;6114606;23;20017;-60
2022/12/20 05:45:04;;;;;;;2.13;0.63;;;19.90;44.40;;;;;;6088957;23;20057;-61
2022/12/20 05:47:32;;;;;;;3.80;0.73;;;19.90;44.50;;;;;;6088024;23;20810;-61
2022/12/20 05:49:59;;;;;;;2.65;0.70;;;19.90;44.50;;;;;;6114054;23;20010;-63
2022/12/20 05:52:25;;;;;;;0.90;0.70;;;19.90;44.50;;;;;;6115768;23;20077;-62
2022/12/20 05:54:51;;;;;;;3.75;0.80;;;19.90;44.50;;;;;;6067114;23;20022;-62
2022/12/20 05:57:17;;;;;;;2.47;0.80;;;19.90;44.50;;;;;;6090622;23;20017;-60
2022/12/20 05:59:43;;;;;;;2.25;0.70;;;19.90;44.50;;;;;;6090411;23;20406;-61
2022/12/20 06:02:12;;;;;;;1.48;0.80;;;19.90;44.60;;;;;;6115779;23;20049;-61
2022/12/20 06:04:37;;;;;;;3.17;0.90;;;19.80;44.50;;;;;;6089939;23;20021;-62
2022/12/20 06:07:04;;;;;;;1.63;0.88;;;19.90;44.70;;;;;;6115299;23;20018;-62
2022/12/20 06:09:31;;;;;;;1.60;0.70;;;19.80;44.60;;;;;;6090059;23;20010;-62
2022/12/20 06:11:57;;;;;;;3.63;0.73;;;19.90;44.70;;;;;;6089344;23;20021;-61
2022/12/20 06:14:23;;;;;;;1.80;0.77;;;19.90;44.80;;;;;;6089103;23;20024;-61
2022/12/20 06:16:48;;;;;;;1.20;0.77;;;19.80;44.70;;;;;;6116325;23;20117;-62
2022/12/20 06:19:14;;;;;;;1.55;0.77;;;19.80;44.70;;;;;;6116504;23;20342;-60
2022/12/20 06:21:40;;;;;;;1.83;0.70;;;19.80;44.80;;;;;;6116134;23;20469;-61
2022/12/20 06:24:06;;;;;;;1.48;0.80;;;19.80;44.90;;;;;;6091024;23;20455;-61
2022/12/20 06:26:35;;;;;;;1.52;1.38;;;19.80;44.90;;;;;;6116844;23;20013;-62
2022/12/20 06:29:09;;;;;;;1.02;0.60;;;19.80;45.00;;;;;;6116778;23;20820;-61
2022/12/20 06:31:34;;;;;;;1.80;0.88;;;19.80;45.00;;;;;;6090059;23;20025;-62
2022/12/20 06:34:00;;;;;;;1.00;0.68;;;19.80;45.60;;;;;;6116510;23;20022;-62
2022/12/20 06:36:26;;;;;;;1.13;0.60;;;19.80;45.00;;;;;;6116449;23;20473;-62
2022/12/20 06:38:52;;;;;;;1.55;0.60;;;19.70;45.00;;;;;;6067407;23;20040;-62
2022/12/20 06:41:18;;;;;;;2.30;0.68;;;19.70;45.00;;;;;;6090592;23;20434;-61
2022/12/20 06:43:44;;;;;;;2.70;0.70;;;19.80;45.00;;;;;;6091170;23;20296;-62
2022/12/20 06:46:09;;;;;;;1.38;0.68;;;19.70;45.00;;;;;;6090502;23;20014;-61
2022/12/20 06:48:35;;;;;;;0.77;0.63;;;19.70;45.00;;;;;;6090000;23;20072;-63
2022/12/20 06:51:01;;;;;;;1.58;0.98;;;19.70;45.00;;;;;;6115235;23;20379;-63
2022/12/20 06:53:26;;;;;;;1.40;0.60;;;19.70;45.00;;;;;;6089648;23;20018;-62
2022/12/20 06:55:52;;;;;;;3.80;0.85;;;19.70;45.20;;;;;;6115727;23;20050;-61
2022/12/20 06:58:19;;;;;;;0.90;0.60;;;19.70;45.20;;;;;;6115657;23;20024;-61
2022/12/20 07:00:44;;;;;;;2.05;0.60;;;19.70;45.40;;;;;;6089860;23;20018;-60
2022/12/20 07:03:10;;;;;;;3.15;0.70;;;19.60;45.30;;;;;;6089653;23;20025;-60
2022/12/20 07:05:36;;;;;;;1.75;0.80;;;19.60;45.40;;;;;;6090789;23;20029;-61
2022/12/20 07:08:03;;;;;;;2.85;0.80;;;19.60;45.40;;;;;;6117194;23;20731;-61
2022/12/20 07:10:33;;;;;;;1.23;0.70;;;19.60;45.40;;;;;;6090930;23;20014;-61
2022/12/20 07:12:58;;;;;;;4.10;0.98;;;19.70;45.40;;;;;;6089941;23;20060;-61
2022/12/20 07:15:24;;;;;;;5.15;1.25;;;19.70;45.70;;;;;;6090880;23;20414;-61
2022/12/20 07:17:50;;;;;;;3.92;1.40;;;19.80;45.80;;;;;;6117034;23;20024;-62
2022/12/20 07:20:16;;;;;;;2.72;1.20;;;19.90;45.90;;;;;;6116770;23;20451;-62
2022/12/20 07:22:41;;;;;;;4.18;1.17;;;20.00;46.00;;;;;;6090017;23;20014;-62
2022/12/20 07:25:07;;;;;;;3.25;1.05;;;20.10;45.90;;;;;;6116919;23;20014;-62
2022/12/20 07:27:33;;;;;;;5.45;1.17;;;20.20;45.80;;;;;;6115849;23;20279;-62
2022/12/20 07:29:59;;;;;;;3.60;1.40;;;20.30;45.80;;;;;;6117043;23;20719;-63
2022/12/20 07:32:24;;;;;;;3.50;1.20;;;20.50;45.70;;;;;;6115736;23;20316;-62
2022/12/20 07:34:50;;;;;;;2.65;1.20;;;20.50;45.50;;;;;;6067104;23;20158;-61
2022/12/20 07:37:16;;;;;;;2.72;0.95;;;20.60;45.40;;;;;;6117083;23;20033;-61
2022/12/20 07:39:41;;;;;;;3.22;1.08;;;20.70;45.30;;;;;;6117886;23;20457;-61
2022/12/20 07:42:08;;;;;;;1.50;1.17;;;20.70;45.20;;;;;;6116484;23;20014;-62
2022/12/20 07:44:34;;;;;;;2.47;0.98;;;20.80;45.20;;;;;;6116179;23;20010;-62
2022/12/20 07:46:59;;;;;;;3.17;1.05;;;20.80;45.00;;;;;;6115097;23;20021;-62
2022/12/20 07:49:25;;;;;;;1.73;0.88;;;20.80;45.00;;;;;;6066161;23;20022;-62
2022/12/20 07:51:56;;;;;;;3.65;0.98;;;20.90;45.20;;;;;;6088610;23;20022;-62
2022/12/20 07:54:31;;;;;;;1.98;0.90;;;20.90;45.20;;;;;;6116170;23;20056;-62
2022/12/20 07:57:02;;;;;;;1.63;0.80;;;20.90;45.20;;;;;;6090086;23;20036;-60
2022/12/20 07:59:41;;;;;;;1.55;0.90;;;20.90;45.20;;;;;;6090759;23;20050;-62
2022/12/20 08:02:18;;;;;;;5.13;0.98;;;20.90;45.10;;;;;;6065334;23;20060;-63
2022/12/20 08:04:44;;;;;;;3.22;1.00;;;20.90;45.10;;;;;;6068286;23;20017;-62
2022/12/20 08:07:10;;;;;;;1.70;1.10;;;20.90;45.10;;;;;;6115917;23;20409;-61
2022/12/20 08:09:40;;;;;;;2.20;1.02;;;20.90;45.10;;;;;;6116252;23;20018;-63
2022/12/20 08:12:09;;;;;;;1.85;1.02;;;20.90;45.10;;;;;;6116392;23;20018;-62
2022/12/20 08:14:35;;;;;;;2.80;0.98;;;20.80;45.30;;;;;;6090434;23;20060;-64
2022/12/20 08:17:01;;;;;;;1.55;0.95;;;20.70;45.70;;;;;;6088875;23;20029;-63
2022/12/20 08:19:26;;;;;;;2.67;1.27;;;20.70;45.80;;;;;;6116645;23;20014;-62
2022/12/20 08:21:52;;;;;;;1.73;0.93;;;20.70;45.90;;;;;;6090247;23;20022;-63
2022/12/20 08:24:17;;;;;;;3.05;1.33;;;20.70;45.80;;;;;;6115619;23;20010;-63
2022/12/20 08:26:43;;;;;;;1.67;0.90;;;20.70;45.80;;;;;;6116110;23;20014;-62
2022/12/20 08:29:09;;;;;;;1.67;0.80;;;20.60;46.00;;;;;;6116040;23;20018;-63
2022/12/20 08:31:41;;;;;;;3.42;1.05;;;20.60;46.10;;;;;;6115812;23;20046;-63
2022/12/20 08:34:06;;;;;;;2.30;0.80;;;20.60;46.10;;;;;;6089089;23;20022;-61
2022/12/20 08:36:32;;;;;;;1.83;0.70;;;20.60;46.00;;;;;;6113858;23;20021;-62
2022/12/20 08:39:02;;;;;;;1.60;1.20;;;20.70;45.90;;;;;;6089927;23;20018;-62
2022/12/20 08:41:27;;;;;;;3.22;0.90;;;20.70;45.80;;;;;;6115608;23;20065;-62
2022/12/20 08:43:53;;;;;;;3.72;0.90;;;20.60;45.90;;;;;;6113380;23;20499;-62
2022/12/20 08:46:18;;;;;;;2.50;1.10;;;20.60;46.10;;;;;;6113849;23;20036;-62
2022/12/20 08:48:44;;;;;;;1.98;1.10;;;20.60;46.20;;;;;;6089857;23;20402;-62
2022/12/20 08:51:10;;;;;;;3.10;1.00;;;20.60;46.10;;;;;;6089590;23;20049;-62
2022/12/20 08:53:37;;;;;;;3.25;0.98;;;20.70;46.10;;;;;;6115695;23;20026;-62
2022/12/20 08:56:12;;;;;;;2.50;1.08;;;20.70;45.90;;;;;;6114807;23;20014;-61
2022/12/20 08:58:39;;;;;;;2.15;0.70;;;20.70;46.00;;;;;;6090427;23;20028;-62
2022/12/20 09:01:07;;;;;;;4.47;1.00;;;20.60;46.20;;;;;;6089071;23;20021;-62
2022/12/20 09:03:34;;;;;;;1.33;0.98;;;20.60;46.40;;;;;;6116712;23;20036;-62
2022/12/20 09:06:00;;;;;;;3.38;0.93;;;20.60;46.50;;;;;;6114454;23;20022;-62
2022/12/20 09:08:26;;;;;;;5.28;1.13;;;20.60;46.50;;;;;;6089631;23;20022;-61
2022/12/20 09:10:52;;;;;;;2.58;0.85;;;20.60;46.50;;;;;;6115789;23;20048;-62
2022/12/20 09:13:18;;;;;;;2.85;0.82;;;20.50;46.90;;;;;;6116434;23;20049;-63
2022/12/20 09:15:44;;;;;;;2.92;1.15;;;20.50;47.30;;;;;;6089612;23;20378;-62
2022/12/20 09:18:10;;;;;;;2.00;0.88;;;20.50;47.50;;;;;;6090148;23;20107;-62
2022/12/20 09:20:43;;;;;;;0.88;0.60;;;20.50;47.40;;;;;;6115529;23;20072;-62
2022/12/20 09:23:08;;;;;;;3.15;0.93;;;20.50;47.30;;;;;;6089599;23;20014;-61
2022/12/20 09:25:36;;;;;;;1.85;0.70;;;20.50;47.40;;;;;;6089637;23;20026;-62
2022/12/20 09:28:02;;;;;;;2.60;0.85;;;20.40;47.60;;;;;;6111586;23;20010;-62
2022/12/20 09:30:28;;;;;;;4.47;1.10;;;20.40;47.70;;;;;;6084866;23;20017;-64
2022/12/20 09:32:53;;;;;;;5.28;1.35;;;20.50;47.80;;;;;;6086771;23;20010;-62
2022/12/20 09:35:19;;;;;;;3.92;1.10;;;20.50;47.80;;;;;;6108955;23;20033;-62
2022/12/20 09:37:45;;;;;;;2.67;0.88;;;20.50;47.80;;;;;;6110154;23;20014;-64
2022/12/20 09:40:19;;;;;;;1.58;0.90;;;20.40;48.40;;;;;;6084866;23;20021;-62
2022/12/20 09:42:46;;;;;;;1.25;0.90;;;20.40;48.10;;;;;;6110822;23;20022;-62
2022/12/20 09:45:23;;;;;;;1.92;0.75;;;20.40;48.00;;;;;;6085780;23;20018;-61
2022/12/20 09:47:51;;;;;;;3.20;0.88;;;20.50;48.10;;;;;;6115219;23;20013;-62
2022/12/20 09:50:19;;;;;;;2.25;0.80;;;20.50;47.90;;;;;;6114678;23;20040;-62
2022/12/20 09:53:07;;;;;;;2.40;0.98;;;20.40;47.90;;;;;;6114962;23;20461;-62
2022/12/20 09:55:42;;;;;;;7.63;2.40;;;20.40;48.00;;;;;;6089076;23;20319;-62
2022/12/20 09:58:34;;;;;;;11.32;3.42;;;20.40;47.90;;;;;;6065044;23;20145;-62
2022/12/20 10:01:14;;;;;;;15.15;5.22;;;20.50;48.00;;;;;;6114780;23;20323;-62
2022/12/20 10:03:40;;;;;;;13.30;4.40;;;20.60;47.70;;;;;;6114608;23;20398;-62
2022/12/20 10:06:45;;;;;;;22.05;7.38;;;20.50;47.90;;;;;;6088603;23;20025;-64
2022/12/20 10:09:22;;;;;;;30.88;10.57;;;20.50;48.40;;;;;;6044772;23;20410;-61
2022/12/20 10:12:09;;;;;;;28.73;10.15;;;20.50;48.60;;;;;;6089323;23;20065;-62
2022/12/20 10:15:00;;;;;;;24.45;8.80;;;20.60;48.90;;;;;;6089991;23;20022;-62
2022/12/20 10:17:34;;;;;;;;;;;20.60;48.10;;;;;;6115944;23;20338;-61
2022/12/20 10:20:00;;;;;;;39.50;13.57;;;20.50;49.00;;;;;;6065860;23;19924;-62
2022/12/20 10:22:29;;;;;;;44.58;14.27;;;20.40;48.80;;;;;;6089834;23;20378;-62
2022/12/20 10:25:18;;;;;;;45.85;14.63;;;20.50;49.00;;;;;;6090139;23;20543;-62
2022/12/20 10:27:46;;;;;;;42.42;14.30;;;20.50;49.10;;;;;;6088991;23;20053;-63
2022/12/20 10:30:14;;;;;;;52.08;17.30;;;20.50;48.70;;;;;;6088841;23;20014;-62
2022/12/20 10:32:44;;;;;;;48.80;16.45;;;20.50;49.10;;;;;;6114751;23;20014;-63
2022/12/20 10:35:10;;;;;;;57.97;18.33;;;20.50;49.40;;;;;;6114140;23;20129;-62
2022/12/20 10:37:37;;;;;;;70.22;20.10;;;20.50;49.60;;;;;;6115070;23;20057;-63
2022/12/20 10:40:03;;;;;;;56.08;16.98;;;20.50;49.80;;;;;;6114808;23;20014;-62
2022/12/20 10:42:42;;;;;;;57.17;18.52;;;20.60;49.50;;;;;;6116639;23;20054;-62
2022/12/20 10:45:19;;;;;;;61.75;18.50;;;20.50;49.50;;;;;;6117152;23;20330;-62
2022/12/20 10:47:48;;;;;;;51.33;16.70;;;20.40;49.80;;;;;;6106652;23;20339;-63
2022/12/20 10:50:22;;;;;;;50.28;17.63;;;20.40;49.80;;;;;;6088729;23;20021;-62
2022/12/20 10:53:08;;;;;;;50.78;16.63;;;20.40;49.90;;;;;;6091156;23;20029;-62
2022/12/20 10:55:39;;;;;;;45.55;14.75;;;20.50;49.60;;;;;;6090934;23;20018;-61
2022/12/20 10:58:20;;;;;;;43.63;16.23;;;20.50;49.30;;;;;;6091169;23;20018;-62
2022/12/20 11:00:46;;;;;;;;;;;20.40;49.50;;;;;;6067369;23;20014;-62
2022/12/20 11:03:23;;;;;;;50.30;15.30;;;20.40;49.70;;;;;;6067168;23;19924;-61
2022/12/20 11:05:56;;;;;;;37.63;13.45;;;20.40;49.50;;;;;;6090581;23;20017;-64
2022/12/20 11:08:23;;;;;;;34.30;13.38;;;20.40;49.10;;;;;;6117474;23;20017;-63
2022/12/20 11:10:50;;;;;;;44.63;13.73;;;20.40;48.80;;;;;;6091637;23;20036;-63
2022/12/20 11:13:25;;;;;;;37.33;13.85;;;20.30;49.20;;;;;;6091860;23;20592;-63
2022/12/20 11:15:55;;;;;;;36.83;13.43;;;20.30;49.60;;;;;;6117858;23;20318;-63
2022/12/20 11:19:03;;;;;;;37.78;11.45;;;20.40;49.70;;;;;;6091357;23;20089;-62
2022/12/20 11:21:33;;;;;;;32.97;11.63;;;20.40;49.70;;;;;;6098093;23;20017;-62
2022/12/20 11:24:22;;;;;;;30.85;12.45;;;20.50;49.20;;;;;;6090709;23;20022;-64
2022/12/20 11:27:06;;;;;;;33.70;11.27;;;20.40;49.40;;;;;;6091212;23;20053;-63
2022/12/20 11:29:56;;;;;;;29.85;10.43;;;20.40;49.70;;;;;;6067729;23;20040;-63
2022/12/20 11:32:37;;;;;;;26.95;10.20;;;20.40;49.80;;;;;;6090228;23;20024;-63
2022/12/20 11:35:09;;;;;;;27.88;10.07;;;20.40;49.40;;;;;;6067295;23;20582;-64
2022/12/20 11:37:57;;;;;;;26.50;10.32;;;20.40;49.40;;;;;;6118041;23;20161;-63
2022/12/20 11:40:42;;;;;;;26.02;9.68;;;20.40;49.60;;;;;;6117408;23;20018;-63
2022/12/20 11:43:20;;;;;;;32.05;10.60;;;20.40;49.90;;;;;;6116919;23;20025;-63
2022/12/20 11:46:02;;;;;;;22.02;8.55;;;20.40;49.80;;;;;;6091133;23;20088;-63
2022/12/20 11:49:01;;;;;;;23.50;8.55;;;20.50;49.50;;;;;;6067471;23;20446;-64
2022/12/20 11:51:42;;;;;;;19.55;8.52;;;20.40;49.60;;;;;;6116796;23;20073;-64
2022/12/20 11:54:17;;;;;;;23.33;9.00;;;20.40;49.70;;;;;;6091624;23;20028;-63
2022/12/20 11:56:45;;;;;;;24.15;8.52;;;20.40;49.90;;;;;;6116808;23;20014;-63
2022/12/20 11:59:23;;;;;;;19.48;7.32;;;20.50;49.80;;;;;;6091290;23;20462;-63
2022/12/20 12:01:59;;;;;;;23.88;8.02;;;20.50;49.50;;;;;;6117057;23;20052;-63
2022/12/20 12:04:30;;;;;;;21.98;7.65;;;20.50;49.50;;;;;;6117185;23;20366;-63
2022/12/20 12:07:06;;;;;;;17.55;7.22;;;20.40;49.60;;;;;;6117638;23;20018;-64
2022/12/20 12:09:58;;;;;;;20.73;7.47;;;20.40;49.80;;;;;;6091814;23;20355;-64
2022/12/20 12:12:42;;;;;;;14.00;5.55;;;20.50;49.90;;;;;;6063759;23;20024;-63
2022/12/20 12:15:11;;;;;;;17.85;7.30;;;20.50;49.50;;;;;;6114359;23;20029;-63
2022/12/20 12:17:36;;;;;;;15.75;6.13;;;20.40;49.70;;;;;;6114967;23;20026;-63
2022/12/20 12:20:17;;;;;;;17.17;6.07;;;20.30;49.80;;;;;;6088123;23;20018;-64
2022/12/20 12:22:45;;;;;;;18.67;6.55;;;20.40;49.90;;;;;;6115095;23;20025;-62
2022/12/20 12:25:15;;;;;;;13.82;5.53;;;20.40;49.80;;;;;;6089575;23;20014;-64
2022/12/20 12:27:41;;;;;;;14.80;5.97;;;20.40;49.40;;;;;;6089174;23;20013;-61
2022/12/20 12:30:14;;;;;;;17.33;6.00;;;20.40;49.40;;;;;;6115779;23;20021;-61
2022/12/20 12:32:42;;;;;;;14.48;5.22;;;20.40;49.60;;;;;;6114947;23;20018;-63
2022/12/20 12:35:42;;;;;;;12.52;5.57;;;20.30;49.80;;;;;;6065457;23;20036;-64
2022/12/20 12:38:17;;;;;;;17.57;5.37;;;20.40;50.30;;;;;;6089965;23;20064;-63
2022/12/20 12:40:48;;;;;;;12.93;5.05;;;20.40;50.00;;;;;;6116704;23;20249;-63
2022/12/20 12:43:26;;;;;;;13.68;6.18;;;20.40;50.00;;;;;;6114979;23;20022;-62
2022/12/20 12:45:59;;;;;;;10.05;5.32;;;20.30;50.70;;;;;;6090089;23;20013;-62
2022/12/20 12:48:55;;;;;;;12.80;5.18;;;20.30;51.00;;;;;;6089714;23;20433;-63
2022/12/20 12:51:42;;;;;;;11.13;4.45;;;20.30;51.60;;;;;;6077452;23;20014;-62
2022/12/20 12:54:08;;;;;;;17.23;5.35;;;20.40;51.20;;;;;;6114725;23;20103;-63
2022/12/20 12:56:41;;;;;;;11.85;4.65;;;20.30;51.30;;;;;;6065314;23;20055;-64
2022/12/20 12:59:08;;;;;;;12.45;4.53;;;20.30;51.90;;;;;;6090669;23;20076;-63
2022/12/20 13:01:53;;;;;;;9.43;4.47;;;20.30;51.90;;;;;;6088414;23;20022;-63
2022/12/20 13:04:18;;;;;;;9.57;4.25;;;20.40;52.20;;;;;;6114503;23;20018;-63
2022/12/20 13:06:47;;;;;;;11.50;4.32;;;20.40;51.90;;;;;;6114275;23;20485;-63